createdAt,value
2022-11-04T00:01:43.082Z,38.13
2022-11-04T00:04:11.755Z,38.97
2022-11-04T00:06:39.520Z,36.28
2022-11-04T00:09:10.149Z,33.08
2022-11-04T00:11:56.137Z,32.10
2022-11-04T00:14:23.651Z,28.70
2022-11-04T00:17:09.712Z,25.75
2022-11-04T00:19:55.674Z,26.55
2022-11-04T00:22:43.300Z,22.35
2022-11-04T00:25:29.444Z,20.63
2022-11-04T00:28:32.938Z,20.92
2022-11-04T00:31:22.132Z,19.15
2022-11-04T00:33:51.162Z,18.17
2022-11-04T00:36:19.025Z,17.77
2022-11-04T00:38:46.535Z,17.23
2022-11-04T00:41:26.587Z,16.73
2022-11-04T00:44:05.077Z,17.92
2022-11-04T00:46:33.672Z,15.52
2022-11-04T00:49:01.450Z,16.48
2022-11-04T00:51:29.080Z,16.83
2022-11-04T00:53:58.299Z,18.77
2022-11-04T00:56:25.827Z,16.98
2022-11-04T00:58:53.291Z,18.17
2022-11-04T01:01:20.918Z,16.55
2022-11-04T01:03:50.692Z,17.30
2022-11-04T01:06:18.948Z,17.52
2022-11-04T01:08:47.104Z,16.27
2022-11-04T01:11:15.935Z,16.83
2022-11-04T01:13:43.761Z,17.63
2022-11-04T01:16:12.909Z,14.90
2022-11-04T01:18:41.070Z,16.08
2022-11-04T01:21:13.035Z,16.85
2022-11-04T01:23:42.060Z,16.67
2022-11-04T01:26:21.596Z,16.48
2022-11-04T01:28:49.354Z,15.70
2022-11-04T01:31:23.151Z,17.08
2022-11-04T01:33:55.099Z,20.58
2022-11-04T01:36:22.951Z,18.55
2022-11-04T01:38:50.478Z,20.17
2022-11-04T01:41:26.263Z,18.42
2022-11-04T01:44:00.175Z,19.65
2022-11-04T01:46:50.505Z,19.48
2022-11-04T01:49:29.604Z,18.75
2022-11-04T01:52:09.100Z,21.23
2022-11-04T01:54:38.908Z,21.42
2022-11-04T01:57:09.669Z,21.33
2022-11-04T01:59:40.955Z,21.60
2022-11-04T02:02:09.321Z,21.33
2022-11-04T02:04:38.552Z,23.50
2022-11-04T02:07:08.817Z,22.48
2022-11-04T02:09:38.377Z,22.30
2022-11-04T02:12:24.445Z,23.02
2022-11-04T02:14:56.084Z,23.85
2022-11-04T02:17:55.072Z,24.45
2022-11-04T02:20:59.859Z,22.13
2022-11-04T02:24:09.231Z,24.23
2022-11-04T02:27:08.697Z,24.95
2022-11-04T02:29:47.648Z,23.40
2022-11-04T02:32:14.989Z,22.83
2022-11-04T02:34:50.506Z,26.33
2022-11-04T02:37:28.116Z,25.05
2022-11-04T02:39:55.520Z,23.42
2022-11-04T02:42:58.466Z,24.20
2022-11-04T02:48:31.110Z,24.00
2022-11-04T02:51:25.166Z,25.38
2022-11-04T02:54:09.628Z,24.27
2022-11-04T02:56:42.410Z,22.90
2022-11-04T02:59:26.983Z,22.67
2022-11-04T03:01:56.222Z,21.38
2022-11-04T03:04:32.068Z,22.73
2022-11-04T03:07:01.411Z,23.10
2022-11-04T03:09:30.392Z,19.85
2022-11-04T03:12:06.002Z,21.60
2022-11-04T03:14:41.500Z,21.05
2022-11-04T03:17:20.821Z,19.20
2022-11-04T03:20:00.104Z,20.77
2022-11-04T03:22:30.123Z,20.20
2022-11-04T03:24:58.085Z,19.20
2022-11-04T03:27:25.493Z,19.33
2022-11-04T03:30:05.157Z,18.67
2022-11-04T03:32:47.041Z,19.20
2022-11-04T03:35:17.005Z,19.02
2022-11-04T03:37:47.051Z,20.05
2022-11-04T03:40:16.281Z,18.85
2022-11-04T03:43:01.012Z,18.42
2022-11-04T03:45:28.615Z,18.75
2022-11-04T03:47:57.122Z,18.80
2022-11-04T03:50:32.015Z,20.83
2022-11-04T03:53:00.349Z,18.13
2022-11-04T03:56:02.760Z,17.73
2022-11-04T03:58:53.110Z,18.10
2022-11-04T04:01:43.886Z,19.27
2022-11-04T04:04:37.240Z,19.77
2022-11-04T04:07:16.716Z,20.15
2022-11-04T04:09:50.794Z,20.77
2022-11-04T04:12:26.702Z,20.52
2022-11-04T04:15:02.988Z,19.77
2022-11-04T04:17:40.840Z,21.15
2022-11-04T04:20:19.502Z,21.75
2022-11-04T04:22:58.175Z,20.33
2022-11-04T04:25:47.005Z,22.17
2022-11-04T04:28:17.813Z,21.88
2022-11-04T04:30:46.392Z,23.35
2022-11-04T04:33:19.063Z,23.25
2022-11-04T04:35:57.015Z,23.92
2022-11-04T04:38:45.676Z,24.83
2022-11-04T04:41:49.166Z,23.30
2022-11-04T04:44:45.499Z,23.83
2022-11-04T04:47:21.351Z,25.13
2022-11-04T04:49:56.068Z,25.27
2022-11-04T04:52:26.982Z,25.05
2022-11-04T04:54:54.823Z,25.15
2022-11-04T04:57:22.317Z,25.00
2022-11-04T04:59:49.683Z,27.08
2022-11-04T05:02:17.211Z,26.85
2022-11-04T05:04:44.811Z,25.83
2022-11-04T05:07:12.254Z,25.83
2022-11-04T05:09:39.744Z,26.13
2022-11-04T05:12:07.499Z,24.45
2022-11-04T05:14:34.853Z,26.25
2022-11-04T05:17:03.074Z,24.52
2022-11-04T05:19:30.487Z,27.48
2022-11-04T05:21:58.313Z,25.92
2022-11-04T05:24:25.812Z,24.70
2022-11-04T05:26:53.240Z,24.65
2022-11-04T05:29:20.656Z,25.73
2022-11-04T05:31:48.047Z,27.00
2022-11-04T05:34:15.457Z,25.42
2022-11-04T05:36:42.970Z,25.75
2022-11-04T05:39:13.820Z,26.42
2022-11-04T05:41:41.324Z,25.00
2022-11-04T05:44:10.710Z,24.58
2022-11-04T05:46:40.711Z,24.13
2022-11-04T05:49:09.403Z,25.00
2022-11-04T05:51:37.044Z,26.00
2022-11-04T05:54:04.612Z,24.63
2022-11-04T05:56:32.022Z,24.98
2022-11-04T05:58:59.443Z,25.50
2022-11-04T06:01:26.888Z,26.45
2022-11-04T06:03:55.148Z,24.33
2022-11-04T06:06:24.039Z,25.40
2022-11-04T06:08:51.926Z,22.15
2022-11-04T06:11:20.912Z,24.70
2022-11-04T06:13:48.787Z,24.20
2022-11-04T06:16:16.272Z,25.70
2022-11-04T06:18:43.911Z,26.35
2022-11-04T06:21:14.241Z,26.38
2022-11-04T06:23:42.706Z,25.55
2022-11-04T06:26:10.816Z,26.50
2022-11-04T06:28:39.004Z,25.92
2022-11-04T06:31:09.693Z,25.77
2022-11-04T06:33:37.356Z,28.50
2022-11-04T06:36:06.905Z,29.73
2022-11-04T06:38:36.500Z,29.02
2022-11-04T06:43:37.500Z,31.75
2022-11-04T06:46:05.258Z,29.45
2022-11-04T06:48:32.952Z,23.58
2022-11-04T06:51:01.400Z,17.95
2022-11-04T06:53:29.916Z,19.88
2022-11-04T06:56:04.017Z,18.25
2022-11-04T06:58:31.462Z,19.00
2022-11-04T07:00:58.886Z,19.67
2022-11-04T07:03:26.331Z,17.63
2022-11-04T07:05:54.176Z,12.40
2022-11-04T07:08:21.879Z,10.88
2022-11-04T07:10:49.395Z,9.63
2022-11-04T07:13:17.673Z,6.55
2022-11-04T07:15:45.099Z,7.13
2022-11-04T07:18:12.532Z,5.20
2022-11-04T07:20:40.311Z,4.90
2022-11-04T07:23:08.440Z,5.32
2022-11-04T07:25:35.864Z,5.68
2022-11-04T07:28:03.285Z,4.47
2022-11-04T07:30:30.659Z,3.92
2022-11-04T07:32:58.740Z,4.28
2022-11-04T07:35:26.179Z,4.03
2022-11-04T07:37:55.270Z,3.03
2022-11-04T07:40:22.689Z,3.13
2022-11-04T07:42:50.045Z,3.05
2022-11-04T07:45:18.725Z,3.25
2022-11-04T07:47:46.180Z,2.70
2022-11-04T07:50:13.798Z,2.58
2022-11-04T07:52:41.247Z,2.50
2022-11-04T07:55:10.051Z,2.83
2022-11-04T07:57:37.622Z,2.85
2022-11-04T08:00:06.639Z,2.53
2022-11-04T08:02:39.662Z,2.88
2022-11-04T08:05:08.137Z,2.53
2022-11-04T08:07:35.574Z,2.97
2022-11-04T08:10:02.979Z,3.25
2022-11-04T08:12:32.258Z,2.75
2022-11-04T08:15:00.048Z,2.28
2022-11-04T08:17:27.577Z,1.88
2022-11-04T08:19:54.948Z,1.30
2022-11-04T08:22:22.357Z,1.10
2022-11-04T08:24:50.090Z,0.90
2022-11-04T08:27:17.554Z,1.30
2022-11-04T08:29:44.930Z,1.38
2022-11-04T08:32:13.385Z,1.20
2022-11-04T08:34:42.085Z,1.00
2022-11-04T08:37:09.482Z,1.00
2022-11-04T08:39:36.841Z,0.90
2022-11-04T08:42:05.031Z,2.08
2022-11-04T08:44:34.044Z,1.00
2022-11-04T08:47:02.807Z,0.82
2022-11-04T08:49:30.348Z,1.15
2022-11-04T08:51:59.782Z,2.45
2022-11-04T08:54:27.743Z,1.80
2022-11-04T08:56:55.426Z,2.00
2022-11-04T08:59:23.155Z,1.55
2022-11-04T09:01:50.568Z,1.23
2022-11-04T09:04:19.623Z,1.30
2022-11-04T09:06:47.334Z,1.35
2022-11-04T09:09:16.993Z,1.20
2022-11-04T09:11:45.511Z,1.30
2022-11-04T09:14:13.048Z,1.50
2022-11-04T09:16:41.629Z,1.30
2022-11-04T09:19:09.532Z,1.50
2022-11-04T09:21:37.300Z,2.00
2022-11-04T09:24:06.047Z,1.00
2022-11-04T09:26:33.494Z,0.98
2022-11-04T09:29:00.960Z,0.77
2022-11-04T09:31:30.388Z,1.20
2022-11-04T09:33:59.433Z,1.20
2022-11-04T09:36:26.971Z,1.08
2022-11-04T09:38:54.675Z,0.93
2022-11-04T09:41:28.924Z,0.93
2022-11-04T09:44:21.718Z,1.10
2022-11-04T09:46:51.302Z,1.30
2022-11-04T09:49:19.063Z,0.98
2022-11-04T09:51:54.336Z,1.00
2022-11-04T09:54:24.234Z,1.10
2022-11-04T09:56:54.296Z,1.88
2022-11-04T09:59:28.721Z,1.40
2022-11-04T10:02:25.202Z,1.40
2022-11-04T10:04:57.258Z,0.90
2022-11-04T10:07:48.855Z,0.70
2022-11-04T10:10:34.659Z,0.82
2022-11-04T10:13:20.887Z,1.85
2022-11-04T10:16:10.554Z,1.08
2022-11-04T10:19:08.324Z,1.55
2022-11-04T10:21:46.508Z,0.80
2022-11-04T10:24:13.890Z,0.82
2022-11-04T10:26:50.504Z,1.08
2022-11-04T10:29:31.728Z,0.88
2022-11-04T10:32:01.925Z,0.80
2022-11-04T10:34:59.001Z,0.77
2022-11-04T10:37:26.953Z,1.42
2022-11-04T10:40:06.337Z,1.30
2022-11-04T10:42:33.834Z,1.10
2022-11-04T10:45:01.811Z,1.10
2022-11-04T10:47:42.464Z,0.90
2022-11-04T10:50:30.268Z,0.70
2022-11-04T10:53:18.937Z,1.08
2022-11-04T10:56:17.006Z,1.38
2022-11-04T10:58:46.845Z,1.20
2022-11-04T11:01:32.898Z,1.00
2022-11-04T11:04:05.950Z,1.20
2022-11-04T11:06:36.759Z,1.23
2022-11-04T11:09:21.380Z,1.20
2022-11-04T11:11:51.530Z,0.98
2022-11-04T11:14:28.007Z,1.10
2022-11-04T11:17:17.315Z,1.60
2022-11-04T11:20:15.040Z,1.40
2022-11-04T11:22:44.564Z,1.50
2022-11-04T11:25:21.427Z,1.20
2022-11-04T11:27:50.781Z,1.13
2022-11-04T11:30:25.307Z,1.08
2022-11-04T11:33:03.853Z,0.40
2022-11-04T11:35:41.383Z,0.60
2022-11-04T11:38:32.887Z,0.85
2022-11-04T11:41:24.843Z,0.77
2022-11-04T11:43:55.096Z,0.98
2022-11-04T11:46:24.480Z,1.02
2022-11-04T11:48:54.732Z,0.80
2022-11-04T11:51:36.632Z,1.38
2022-11-04T11:54:16.252Z,0.82
2022-11-04T12:02:40.295Z,0.68
2022-11-04T12:11:46.192Z,0.63
2022-11-04T12:14:36.622Z,23.15
2022-11-04T12:17:25.175Z,1.05
2022-11-04T12:20:03.952Z,5.97
2022-11-04T12:22:47.708Z,0.98
2022-11-04T12:25:20.745Z,0.40
2022-11-04T12:27:55.809Z,1.17
2022-11-04T12:30:32.383Z,0.80
2022-11-04T12:33:14.567Z,0.73
2022-11-04T12:36:05.954Z,0.40
2022-11-04T12:38:42.892Z,0.70
2022-11-04T12:41:58.810Z,1.25
2022-11-04T12:44:37.304Z,1.08
2022-11-04T12:47:46.111Z,0.60
2022-11-04T12:50:22.557Z,0.68
2022-11-04T12:52:55.768Z,0.70
2022-11-04T12:55:51.968Z,9.90
2022-11-04T12:58:54.460Z,1.45
2022-11-04T13:01:37.733Z,0.73
2022-11-04T13:04:09.732Z,0.65
2022-11-04T13:06:46.726Z,0.30
2022-11-04T13:09:35.928Z,0.60
2022-11-04T13:12:06.968Z,1.58
2022-11-04T13:14:48.392Z,0.60
2022-11-04T13:17:26.491Z,0.60
2022-11-04T13:19:58.500Z,0.60
2022-11-04T13:22:32.749Z,0.60
2022-11-04T13:25:06.641Z,0.60
2022-11-04T13:27:48.180Z,0.60
2022-11-04T13:30:33.589Z,0.50
2022-11-04T13:33:01.071Z,0.30
2022-11-04T13:35:45.029Z,0.90
2022-11-04T13:38:24.256Z,0.68
2022-11-04T13:41:16.218Z,0.80
2022-11-04T13:43:52.512Z,0.68
2022-11-04T13:46:30.057Z,1.95
2022-11-04T13:49:12.456Z,0.80
2022-11-04T13:51:46.811Z,0.70
2022-11-04T13:54:25.476Z,1.20
2022-11-04T13:57:22.772Z,2.30
2022-11-04T14:00:13.272Z,1.13
2022-11-04T14:02:43.718Z,1.45
2022-11-04T14:05:37.071Z,1.27
2022-11-04T14:08:04.475Z,0.60
2022-11-04T14:10:50.018Z,0.80
2022-11-04T14:13:37.436Z,0.80
2022-11-04T14:16:17.516Z,0.80
2022-11-04T14:18:47.756Z,1.08
2022-11-04T14:21:17.464Z,1.40
2022-11-04T14:24:16.503Z,1.05
2022-11-04T14:26:48.454Z,1.10
2022-11-04T14:29:18.952Z,1.10
2022-11-04T14:31:53.656Z,1.00
2022-11-04T14:34:35.506Z,1.17
2022-11-04T14:37:26.347Z,2.00
2022-11-04T14:39:57.816Z,1.25
2022-11-04T14:42:51.695Z,1.17
2022-11-04T14:45:25.596Z,2.88
2022-11-04T14:48:02.299Z,1.83
2022-11-04T14:50:29.740Z,0.90
2022-11-04T14:53:01.914Z,0.90
2022-11-04T14:55:31.158Z,1.00
2022-11-04T14:58:20.060Z,1.20
2022-11-04T15:00:54.617Z,1.20
2022-11-04T15:04:04.551Z,0.90
2022-11-04T15:06:11.315Z,0.80
2022-11-04T15:08:43.937Z,1.05
2022-11-04T15:11:16.651Z,0.80
2022-11-04T15:13:49.398Z,1.20
2022-11-04T15:16:26.401Z,1.20
2022-11-04T15:18:56.081Z,1.80
2022-11-04T15:21:23.881Z,1.40
2022-11-04T15:23:55.766Z,2.10
2022-11-04T15:26:30.788Z,1.13
2022-11-04T15:29:01.694Z,1.73
2022-11-04T15:31:32.787Z,2.20
2022-11-04T15:34:02.907Z,1.77
2022-11-04T15:36:35.045Z,2.00
2022-11-04T15:39:07.972Z,1.48
2022-11-04T15:41:57.621Z,1.17
2022-11-04T15:44:27.607Z,1.60
2022-11-04T15:47:00.547Z,1.45
2022-11-04T15:49:33.310Z,2.78
2022-11-04T15:52:06.996Z,5.43
2022-11-04T15:54:44.387Z,2.45
2022-11-04T15:57:29.503Z,3.60
2022-11-04T16:00:17.850Z,3.83
2022-11-04T16:02:51.615Z,3.47
2022-11-04T16:05:31.601Z,2.05
2022-11-04T16:08:21.977Z,1.80
2022-11-04T16:11:07.647Z,1.58
2022-11-04T16:13:35.049Z,2.78
2022-11-04T16:16:03.177Z,2.05
2022-11-04T16:18:38.047Z,1.48
2022-11-04T16:21:10.950Z,1.60
2022-11-04T16:23:46.909Z,1.98
2022-11-04T16:26:14.447Z,1.33
2022-11-04T16:28:42.521Z,1.55
2022-11-04T16:31:34.019Z,2.92
2022-11-04T16:34:01.710Z,6.00
2022-11-04T16:36:35.051Z,3.45
2022-11-04T16:39:08.204Z,1.92
2022-11-04T16:41:41.888Z,1.55
2022-11-04T16:44:19.952Z,1.83
2022-11-04T16:46:47.342Z,1.55
2022-11-04T16:49:20.260Z,1.45
2022-11-04T16:51:53.244Z,1.80
2022-11-04T16:54:20.683Z,1.85
2022-11-04T16:56:48.405Z,2.05
2022-11-04T16:59:15.763Z,3.85
2022-11-04T17:01:43.324Z,2.25
2022-11-04T17:04:10.889Z,1.92
2022-11-04T17:06:38.521Z,1.88
2022-11-04T17:09:21.521Z,3.80
2022-11-04T17:11:49.534Z,2.00
2022-11-04T17:14:17.275Z,2.10
2022-11-04T17:16:44.864Z,2.45
2022-11-04T17:19:16.582Z,2.00
2022-11-04T17:21:45.311Z,2.00
2022-11-04T17:24:12.911Z,3.63
2022-11-04T17:26:40.391Z,2.00
2022-11-04T17:29:09.070Z,3.83
2022-11-04T17:31:39.165Z,2.08
2022-11-04T17:34:06.573Z,2.10
2022-11-04T17:36:34.972Z,3.83
2022-11-04T17:39:03.313Z,6.72
2022-11-04T17:41:49.247Z,5.45
2022-11-04T17:44:16.604Z,2.70
2022-11-04T17:46:47.669Z,2.88
2022-11-04T17:49:23.681Z,3.08
2022-11-04T17:51:57.057Z,3.35
2022-11-04T17:54:27.358Z,3.40
2022-11-04T17:56:55.905Z,3.42
2022-11-04T17:59:23.346Z,4.60
2022-11-04T18:01:51.226Z,3.25
2022-11-04T18:04:22.258Z,3.65
2022-11-04T18:06:50.703Z,3.83
2022-11-04T18:09:18.696Z,4.15
2022-11-04T18:12:04.782Z,11.55
2022-11-04T18:14:32.352Z,24.10
2022-11-04T18:17:00.359Z,8.38
2022-11-04T18:19:28.034Z,12.35
2022-11-04T18:21:58.110Z,5.43
2022-11-04T18:24:25.593Z,3.70
2022-11-04T18:26:53.324Z,3.75
2022-11-04T18:29:21.204Z,3.53
2022-11-04T18:31:49.784Z,3.38
2022-11-04T18:34:19.508Z,3.17
2022-11-04T18:36:48.379Z,3.22
2022-11-04T18:39:21.069Z,13.13
2022-11-04T18:41:48.848Z,8.35
2022-11-04T18:44:18.636Z,6.45
2022-11-04T18:46:48.861Z,4.15
2022-11-04T18:49:17.053Z,5.53
2022-11-04T18:51:44.564Z,5.82
2022-11-04T18:54:12.756Z,6.72
2022-11-04T18:56:40.859Z,5.63
2022-11-04T18:59:10.146Z,4.65
2022-11-04T19:01:37.935Z,16.77
2022-11-04T19:04:06.076Z,10.40
2022-11-04T19:06:40.717Z,56.05
2022-11-04T19:09:40.595Z,11.80
2022-11-04T19:12:19.495Z,7.25
2022-11-04T19:14:46.859Z,8.00
2022-11-04T19:17:14.952Z,7.43
2022-11-04T19:19:42.927Z,5.30
2022-11-04T19:22:11.080Z,5.25
2022-11-04T19:24:39.383Z,4.70
2022-11-04T19:27:06.953Z,4.78
2022-11-04T19:29:34.355Z,4.18
2022-11-04T19:32:01.761Z,5.15
2022-11-04T19:34:29.236Z,5.57
2022-11-04T19:36:57.835Z,10.07
2022-11-04T19:39:25.496Z,11.27
2022-11-04T19:42:11.200Z,7.05
2022-11-04T19:44:38.619Z,12.43
2022-11-04T19:47:07.435Z,11.13
2022-11-04T19:49:34.882Z,12.43
2022-11-04T19:52:02.372Z,9.10
2022-11-04T19:54:29.887Z,9.00
2022-11-04T19:56:57.981Z,9.57
2022-11-04T19:59:25.670Z,7.10
2022-11-04T20:01:53.146Z,7.55
2022-11-04T20:04:20.656Z,6.60
2022-11-04T20:06:48.092Z,8.07
2022-11-04T20:09:15.496Z,7.55
2022-11-04T20:12:01.803Z,7.55
2022-11-04T20:14:30.545Z,7.65
2022-11-04T20:16:57.927Z,5.72
2022-11-04T20:19:25.376Z,6.50
2022-11-04T20:21:52.848Z,7.43
2022-11-04T20:24:20.350Z,6.65
2022-11-04T20:26:48.535Z,7.13
2022-11-04T20:29:16.552Z,7.47
2022-11-04T20:31:44.526Z,6.57
2022-11-04T20:34:13.666Z,9.98
2022-11-04T20:36:41.538Z,8.30
2022-11-04T20:39:19.586Z,8.05
2022-11-04T20:41:47.087Z,6.45
2022-11-04T20:44:15.950Z,7.18
2022-11-04T20:46:44.191Z,5.68
2022-11-04T20:49:12.780Z,5.53
2022-11-04T20:51:48.725Z,9.80
2022-11-04T20:54:20.828Z,7.68
2022-11-04T20:56:48.253Z,6.35
2022-11-04T20:59:16.428Z,5.90
2022-11-04T21:01:46.380Z,6.90
2022-11-04T21:04:18.738Z,6.72
2022-11-04T21:06:48.221Z,5.95
2022-11-04T21:09:17.784Z,6.82
2022-11-04T21:11:45.501Z,6.63
2022-11-04T21:14:15.903Z,5.85
2022-11-04T21:16:43.887Z,6.22
2022-11-04T21:19:12.238Z,6.60
2022-11-04T21:21:42.453Z,6.75
2022-11-04T21:24:13.545Z,9.68
2022-11-04T21:26:41.599Z,11.23
2022-11-04T21:29:12.272Z,12.10
2022-11-04T21:31:40.483Z,85.78
2022-11-04T21:34:07.988Z,18.83
2022-11-04T21:36:35.728Z,10.50
2022-11-04T21:39:04.178Z,10.30
2022-11-04T21:41:37.400Z,10.10
2022-11-04T21:44:08.601Z,9.07
2022-11-04T21:46:36.950Z,9.45
2022-11-04T21:49:04.431Z,9.88
2022-11-04T21:51:34.274Z,10.32
2022-11-04T21:54:06.070Z,8.65
2022-11-04T21:56:33.627Z,6.53
2022-11-04T21:59:01.561Z,10.43
2022-11-04T22:01:30.449Z,7.60
2022-11-04T22:04:00.167Z,8.02
2022-11-04T22:06:35.465Z,7.90
2022-11-04T22:09:05.685Z,8.77
2022-11-04T22:11:36.540Z,9.18
2022-11-04T22:14:06.008Z,137.85
2022-11-04T22:16:35.424Z,15.40
2022-11-04T22:19:05.158Z,10.18
2022-11-04T22:21:33.034Z,9.50
2022-11-04T22:24:01.780Z,9.90
2022-11-04T22:26:32.587Z,9.43
2022-11-04T22:29:00.524Z,10.55
2022-11-04T22:31:33.938Z,9.27
2022-11-04T22:34:01.848Z,9.73
2022-11-04T22:36:31.100Z,8.77
2022-11-04T22:38:59.904Z,9.00
2022-11-04T22:41:30.370Z,25.27
2022-11-04T22:43:58.704Z,16.23
2022-11-04T22:46:29.016Z,17.90
2022-11-04T22:48:56.735Z,17.67
2022-11-04T22:51:24.187Z,14.85
2022-11-04T22:53:59.993Z,13.52
2022-11-04T22:56:31.628Z,13.57
2022-11-04T22:59:00.387Z,13.40
2022-11-04T23:01:36.112Z,12.80
2022-11-04T23:04:04.832Z,12.80
2022-11-04T23:06:32.323Z,12.35
2022-11-04T23:09:00.958Z,9.82
2022-11-04T23:11:48.599Z,7.93
2022-11-04T23:14:38.032Z,8.60
2022-11-04T23:17:40.078Z,8.52
2022-11-04T23:20:10.951Z,10.63
2022-11-04T23:22:57.479Z,11.27
2022-11-04T23:25:26.073Z,9.57
2022-11-04T23:28:13.914Z,8.93
2022-11-04T23:30:44.674Z,8.52
2022-11-04T23:33:14.696Z,8.23
2022-11-04T23:36:06.161Z,7.82
2022-11-04T23:38:35.232Z,8.23
2022-11-04T23:41:24.295Z,7.15
2022-11-04T23:43:53.138Z,8.07
2022-11-04T23:46:42.984Z,7.60
2022-11-04T23:49:14.677Z,7.82
2022-11-04T23:52:00.906Z,6.35
2022-11-04T23:54:46.617Z,8.18
2022-11-04T23:57:34.960Z,8.57
